Time;durP1;ratioP1;P1;durP2;ratioP2;P2;SDS_P1;SDS_P2;PMS_P1;PMS_P2;Temp;Humidity;BMP_temperature;BMP_pressure;BME280_temperature;BME280_humidity;BME280_pressure;Samples;Min_cycle;Max_cycle;Signal;HPM_P1;HPM_P2
2021/05/10 00:00:38;;;;;;;11.05;8.82;;;17.00;83.00;;;;;;5090830;28;20044;-54
2021/05/10 00:03:04;;;;;;;12.98;8.82;;;17.00;83.30;;;;;;5090203;28;20048;-53
2021/05/10 00:05:33;;;;;;;11.73;8.90;;;16.90;83.50;;;;;;5090620;28;20036;-53
2021/05/10 00:08:01;;;;;;;12.43;8.43;;;16.90;83.80;;;;;;5060627;28;20126;-54
2021/05/10 00:10:27;;;;;;;12.27;9.10;;;16.90;83.70;;;;;;5092804;28;20170;-53
2021/05/10 00:12:55;;;;;;;13.80;9.10;;;17.00;83.00;;;;;;5059731;28;20055;-54
2021/05/10 00:15:22;;;;;;;12.02;8.57;;;16.90;83.00;;;;;;5057707;28;20059;-54
2021/05/10 00:17:48;;;;;;;14.88;9.68;;;16.90;83.40;;;;;;5091519;28;20028;-53
2021/05/10 00:20:14;;;;;;;12.02;9.43;;;16.90;83.40;;;;;;5086312;28;20097;-54
2021/05/10 00:22:40;;;;;;;10.95;9.10;;;16.90;83.30;;;;;;5094484;28;20434;-54
2021/05/10 00:25:06;;;;;;;12.82;9.60;;;17.00;83.00;;;;;;5092236;28;20044;-52
2021/05/10 00:27:32;;;;;;;13.75;9.57;;;17.00;82.40;;;;;;5088825;28;20063;-54
2021/05/10 00:29:57;;;;;;;11.23;9.30;;;17.10;81.90;;;;;;5071671;28;20120;-51
2021/05/10 00:32:23;;;;;;;12.65;10.57;;;17.10;82.20;;;;;;5090831;28;20128;-54
2021/05/10 00:34:53;;;;;;;16.13;10.75;;;17.20;81.90;;;;;;5058914;28;20036;-54
2021/05/10 00:37:19;;;;;;;14.52;10.88;;;17.10;81.90;;;;;;5094005;28;20066;-54
2021/05/10 00:39:45;;;;;;;16.15;12.85;;;17.10;81.70;;;;;;5092232;28;20032;-54
2021/05/10 00:42:11;;;;;;;21.35;13.65;;;17.10;82.00;;;;;;5094150;28;20488;-53
2021/05/10 00:44:36;;;;;;;18.48;12.98;;;17.00;82.10;;;;;;5083481;28;20101;-53
2021/05/10 00:47:02;;;;;;;18.77;13.30;;;17.00;82.30;;;;;;5093542;28;20044;-52
2021/05/10 00:49:28;;;;;;;18.98;13.50;;;17.00;82.70;;;;;;5074282;28;20047;-53
2021/05/10 00:52:02;;;;;;;15.60;12.05;;;17.00;82.70;;;;;;5093460;28;20096;-52
2021/05/10 00:54:28;;;;;;;14.40;11.82;;;17.00;82.50;;;;;;5092349;28;20403;-51
2021/05/10 00:56:53;;;;;;;15.20;11.68;;;17.00;82.70;;;;;;5093006;28;20047;-51
2021/05/10 00:59:19;;;;;;;15.90;11.23;;;17.00;82.80;;;;;;5057699;28;20070;-51
2021/05/10 01:01:45;;;;;;;13.15;11.27;;;17.00;82.80;;;;;;5090685;28;20484;-53
2021/05/10 01:04:11;;;;;;;14.48;11.02;;;17.00;83.00;;;;;;5093178;28;20059;-54
2021/05/10 01:06:36;;;;;;;14.80;11.70;;;16.90;82.90;;;;;;5092218;28;20475;-51
2021/05/10 01:09:12;;;;;;;16.38;11.98;;;17.00;83.30;;;;;;5091563;28;20059;-52
2021/05/10 01:11:38;;;;;;;13.75;11.73;;;17.00;83.10;;;;;;5074557;28;20036;-52
2021/05/10 01:14:03;;;;;;;15.60;12.20;;;16.90;83.40;;;;;;5092397;28;20070;-54
2021/05/10 01:16:29;;;;;;;14.18;11.95;;;16.90;83.80;;;;;;5091677;28;20036;-53
2021/05/10 01:18:55;;;;;;;14.70;11.27;;;16.80;83.90;;;;;;5091404;28;20040;-53
2021/05/10 01:21:22;;;;;;;15.02;12.13;;;16.80;84.10;;;;;;5092270;28;20412;-52
2021/05/10 01:23:48;;;;;;;16.92;12.50;;;16.80;84.30;;;;;;5091888;28;20043;-54
2021/05/10 01:26:15;;;;;;;13.30;11.75;;;16.90;83.90;;;;;;5092274;28;20489;-55
2021/05/10 01:28:42;;;;;;;22.73;12.70;;;16.90;84.30;;;;;;5070745;28;20557;-55
2021/05/10 01:31:09;;;;;;;15.55;12.52;;;17.00;83.90;;;;;;5080917;28;20043;-52
2021/05/10 01:33:35;;;;;;;14.40;12.25;;;16.90;83.80;;;;;;5091979;28;20048;-55
2021/05/10 01:36:01;;;;;;;15.27;12.40;;;16.90;84.00;;;;;;5086592;28;20044;-52
2021/05/10 01:38:27;;;;;;;16.92;12.35;;;16.80;84.30;;;;;;5083936;28;20051;-52
2021/05/10 01:40:54;;;;;;;15.27;12.40;;;16.80;84.20;;;;;;5085868;28;20436;-53
2021/05/10 01:43:20;;;;;;;14.75;12.48;;;16.80;84.50;;;;;;5057070;28;20048;-54
2021/05/10 01:45:48;;;;;;;17.55;13.05;;;16.70;84.90;;;;;;5092485;28;20558;-52
2021/05/10 01:48:14;;;;;;;18.38;13.70;;;16.60;85.40;;;;;;5056473;28;20048;-53
2021/05/10 01:50:44;;;;;;;14.82;12.80;;;16.60;85.90;;;;;;5082354;28;20047;-53
2021/05/10 01:53:11;;;;;;;14.57;12.35;;;16.50;86.40;;;;;;5073685;28;20040;-51
2021/05/10 01:55:37;;;;;;;15.38;12.40;;;16.40;86.80;;;;;;5088438;28;20036;-54
2021/05/10 01:58:05;;;;;;;16.65;13.60;;;16.50;87.10;;;;;;5063799;28;20044;-52
2021/05/10 02:00:33;;;;;;;13.80;11.95;;;16.40;87.00;;;;;;5091368;28;20040;-53
2021/05/10 02:03:15;;;;;;;15.65;12.23;;;16.40;87.20;;;;;;5091096;28;20048;-53
2021/05/10 02:05:42;;;;;;;14.52;11.75;;;16.50;86.60;;;;;;5070769;28;20093;-51
2021/05/10 02:08:11;;;;;;;15.02;12.35;;;16.50;86.40;;;;;;5070056;28;20044;-51
2021/05/10 02:10:40;;;;;;;14.27;12.18;;;16.50;86.40;;;;;;5089336;28;20411;-54
2021/05/10 02:13:20;;;;;;;17.70;12.75;;;16.50;86.50;;;;;;5072844;28;20047;-51
2021/05/10 02:15:54;;;;;;;13.77;11.75;;;16.50;86.80;;;;;;5091440;28;20082;-53
2021/05/10 02:18:23;;;;;;;13.57;11.70;;;16.50;87.00;;;;;;5091130;28;20499;-55
2021/05/10 02:20:50;;;;;;;13.02;10.75;;;16.50;87.10;;;;;;5089689;28;20545;-52
2021/05/10 02:23:17;;;;;;;12.57;10.98;;;16.50;87.30;;;;;;5090915;28;20039;-51
2021/05/10 02:25:46;;;;;;;14.30;11.00;;;16.30;87.40;;;;;;5090679;28;20070;-53
2021/05/10 02:28:14;;;;;;;13.93;10.85;;;16.30;87.50;;;;;;5091056;28;20040;-51
2021/05/10 02:30:41;;;;;;;12.65;10.85;;;16.30;87.70;;;;;;5090874;28;20056;-52
2021/05/10 02:33:13;;;;;;;13.40;10.98;;;16.20;87.70;;;;;;5091162;28;20040;-54
2021/05/10 02:35:55;;;;;;;12.43;11.10;;;16.20;88.40;;;;;;5068077;28;20119;-51
2021/05/10 02:38:22;;;;;;;14.00;11.77;;;16.20;88.30;;;;;;5056509;28;20112;-52
2021/05/10 02:40:48;;;;;;;12.57;10.30;;;16.30;88.00;;;;;;5086407;28;20777;-52
2021/05/10 02:43:32;;;;;;;15.88;11.18;;;16.40;87.80;;;;;;5084182;28;20048;-53
2021/05/10 02:45:59;;;;;;;13.55;10.48;;;16.40;87.80;;;;;;5072097;28;20048;-52
2021/05/10 02:48:25;;;;;;;14.88;10.50;;;16.40;88.00;;;;;;5090955;28;20048;-51
2021/05/10 02:50:51;;;;;;;12.43;10.85;;;16.30;88.00;;;;;;5089831;28;20047;-55
2021/05/10 02:53:17;;;;;;;12.30;10.57;;;16.40;87.30;;;;;;5090092;28;20487;-51
2021/05/10 02:55:43;;;;;;;14.77;10.95;;;16.40;87.40;;;;;;5091348;28;20043;-53
2021/05/10 02:58:09;;;;;;;14.32;10.55;;;16.30;87.40;;;;;;5089114;28;20043;-49
2021/05/10 03:00:35;;;;;;;14.63;11.35;;;16.60;87.30;;;;;;5089663;28;20043;-49
2021/05/10 03:03:02;;;;;;;12.23;10.60;;;16.70;86.50;;;;;;5089969;28;20040;-53
2021/05/10 03:05:28;;;;;;;12.50;11.20;;;16.60;86.50;;;;;;5090714;28;20132;-50
2021/05/10 03:07:54;;;;;;;12.93;11.50;;;16.60;87.20;;;;;;5090289;28;20127;-53
2021/05/10 03:10:23;;;;;;;14.52;11.90;;;16.50;86.90;;;;;;5090423;28;20040;-52
2021/05/10 03:12:51;;;;;;;14.75;11.57;;;16.50;87.60;;;;;;5091198;28;20113;-51
2021/05/10 03:15:22;;;;;;;15.85;11.68;;;16.50;86.90;;;;;;5072461;28;20450;-53
2021/05/10 03:17:50;;;;;;;12.43;10.93;;;16.50;87.00;;;;;;5089127;28;20040;-52
2021/05/10 03:20:19;;;;;;;14.15;12.50;;;16.60;87.00;;;;;;5082147;28;20519;-52
2021/05/10 03:22:44;;;;;;;13.38;11.55;;;16.60;87.00;;;;;;5090260;28;20042;-53
2021/05/10 03:25:11;;;;;;;15.20;12.07;;;16.50;87.10;;;;;;5089971;28;20146;-53
2021/05/10 03:27:41;;;;;;;12.85;11.05;;;16.50;87.10;;;;;;5090556;28;20048;-52
2021/05/10 03:30:15;;;;;;;17.65;11.85;;;16.50;87.60;;;;;;5089849;28;20040;-53
2021/05/10 03:32:42;;;;;;;13.95;11.05;;;16.50;87.40;;;;;;5081544;28;20039;-53
2021/05/10 03:35:09;;;;;;;15.52;12.35;;;16.40;88.00;;;;;;5095170;28;20097;-54
2021/05/10 03:37:35;;;;;;;18.35;12.48;;;16.40;88.50;;;;;;5088913;28;20040;-50
2021/05/10 03:40:04;;;;;;;19.13;12.55;;;16.40;88.10;;;;;;5089850;28;20048;-54
2021/05/10 03:42:31;;;;;;;14.60;12.23;;;16.30;88.40;;;;;;5094330;28;20048;-53
2021/05/10 03:44:57;;;;;;;15.95;12.60;;;16.30;88.90;;;;;;5076459;28;20127;-53
2021/05/10 03:47:33;;;;;;;15.63;12.60;;;16.20;88.90;;;;;;5092827;28;20151;-49
2021/05/10 03:50:00;;;;;;;14.32;12.82;;;16.20;89.30;;;;;;5084208;28;20056;-50
2021/05/10 03:52:27;;;;;;;16.45;13.25;;;16.20;88.90;;;;;;5089454;28;20090;-52
2021/05/10 03:54:53;;;;;;;17.30;12.27;;;16.20;89.50;;;;;;5093688;28;20539;-51
2021/05/10 03:57:21;;;;;;;14.73;11.88;;;16.20;89.70;;;;;;5088742;28;20036;-54
2021/05/10 03:59:48;;;;;;;13.80;11.57;;;16.20;88.80;;;;;;5092569;28;20096;-53
2021/05/10 04:02:14;;;;;;;13.98;9.82;;;16.20;88.90;;;;;;5093580;28;20507;-51
2021/05/10 04:04:44;;;;;;;11.10;8.68;;;16.30;86.40;;;;;;5092447;28;20032;-53
2021/05/10 04:10:01;;;;;;;10.48;7.20;;;16.50;83.70;;;;;;5089863;28;20033;-53
2021/05/10 04:15:12;;;;;;;7.43;5.15;;;16.70;81.10;;;;;;5080797;28;20044;-48
2021/05/10 04:17:38;;;;;;;7.70;4.90;;;16.80;80.20;;;;;;5075139;28;20063;-52
2021/05/10 04:20:05;;;;;;;7.63;4.30;;;16.90;78.30;;;;;;5092198;28;20075;-50
2021/05/10 04:22:31;;;;;;;5.03;3.63;;;17.00;77.20;;;;;;5093399;28;20048;-53
2021/05/10 04:24:56;;;;;;;11.00;3.55;;;17.10;76.60;;;;;;5091785;28;20136;-48
2021/05/10 04:27:22;;;;;;;7.82;3.45;;;17.20;76.30;;;;;;5094578;28;20457;-53
2021/05/10 04:29:48;;;;;;;6.45;3.45;;;17.20;77.30;;;;;;5080772;28;20040;-53
2021/05/10 04:32:13;;;;;;;4.88;2.70;;;17.20;77.90;;;;;;5091212;28;20406;-55
2021/05/10 04:34:39;;;;;;;9.70;2.72;;;17.20;74.40;;;;;;5080595;28;20035;-55
2021/05/10 04:37:05;;;;;;;6.80;2.92;;;17.30;73.40;;;;;;5091906;28;20450;-53
2021/05/10 04:39:31;;;;;;;4.53;2.35;;;17.50;73.10;;;;;;5086241;28;20040;-52
2021/05/10 04:41:56;;;;;;;4.57;2.80;;;17.50;71.70;;;;;;5085428;28;20066;-53
2021/05/10 04:44:23;;;;;;;4.82;2.70;;;17.60;71.80;;;;;;5091981;28;20044;-55
2021/05/10 04:46:49;;;;;;;3.95;2.30;;;17.70;70.80;;;;;;5074279;28;20567;-53
2021/05/10 04:49:14;;;;;;;4.75;2.50;;;17.80;70.10;;;;;;5092369;28;20047;-53
2021/05/10 04:51:40;;;;;;;6.60;2.65;;;17.80;70.70;;;;;;5091247;28;20033;-53
2021/05/10 04:54:06;;;;;;;5.18;2.30;;;18.00;69.20;;;;;;5092860;28;20036;-53
2021/05/10 04:56:32;;;;;;;6.10;2.60;;;18.00;69.20;;;;;;5093267;28;20487;-53
2021/05/10 04:59:01;;;;;;;6.35;2.33;;;18.10;69.20;;;;;;5070459;28;20044;-54
2021/05/10 05:01:27;;;;;;;5.30;2.10;;;18.20;67.90;;;;;;5071912;28;20036;-52
2021/05/10 05:03:53;;;;;;;4.15;2.00;;;18.30;68.40;;;;;;5073374;28;20036;-54
2021/05/10 05:06:18;;;;;;;5.00;2.50;;;18.30;67.90;;;;;;5082903;28;20385;-52
2021/05/10 05:08:46;;;;;;;4.82;2.15;;;18.40;67.30;;;;;;5073620;28;20047;-53
2021/05/10 05:11:11;;;;;;;4.82;2.40;;;18.40;67.20;;;;;;5091088;28;20048;-53
2021/05/10 05:13:37;;;;;;;6.07;2.30;;;18.50;67.40;;;;;;5092311;28;20067;-54
2021/05/10 05:16:05;;;;;;;5.38;2.15;;;18.70;66.90;;;;;;5061508;28;20050;-53
2021/05/10 05:18:32;;;;;;;6.70;2.47;;;18.60;67.10;;;;;;5091996;28;20040;-51
2021/05/10 05:20:57;;;;;;;6.43;2.22;;;18.60;66.50;;;;;;5088547;28;20093;-52
2021/05/10 05:23:26;;;;;;;6.75;2.58;;;18.60;66.90;;;;;;5092389;28;20101;-53
2021/05/10 05:25:54;;;;;;;4.30;2.13;;;18.50;68.20;;;;;;5076338;28;20147;-50
2021/05/10 05:28:20;;;;;;;4.82;2.10;;;18.50;68.60;;;;;;5076057;28;20029;-52
2021/05/10 05:30:46;;;;;;;6.97;2.25;;;18.50;68.80;;;;;;5075995;28;20070;-50
2021/05/10 05:33:12;;;;;;;5.03;2.20;;;18.50;68.40;;;;;;5069201;28;20154;-52
2021/05/10 05:35:38;;;;;;;4.72;2.30;;;18.50;68.40;;;;;;5074171;28;20127;-51
2021/05/10 05:38:09;;;;;;;3.90;1.83;;;18.50;67.40;;;;;;5057184;28;20047;-52
2021/05/10 05:40:40;;;;;;;4.35;2.08;;;18.60;67.90;;;;;;5057941;28;20491;-52
2021/05/10 05:43:08;;;;;;;4.97;1.90;;;18.70;67.00;;;;;;5080191;28;20060;-52
2021/05/10 05:45:35;;;;;;;4.15;2.20;;;18.80;65.60;;;;;;5058760;28;20040;-53
2021/05/10 05:48:03;;;;;;;4.15;1.90;;;18.80;65.10;;;;;;5081700;28;20052;-53
2021/05/10 05:50:29;;;;;;;3.83;1.80;;;19.00;64.30;;;;;;5053041;28;20041;-51
2021/05/10 05:52:55;;;;;;;4.57;2.03;;;19.00;64.60;;;;;;5076268;28;20045;-55
2021/05/10 05:55:21;;;;;;;5.55;1.73;;;19.10;64.50;;;;;;5055480;28;20117;-55
2021/05/10 05:57:46;;;;;;;6.05;1.80;;;19.10;64.40;;;;;;5074925;28;20491;-52
2021/05/10 06:00:13;;;;;;;3.83;1.70;;;19.10;63.50;;;;;;5072200;28;20423;-52
2021/05/10 06:02:41;;;;;;;3.47;2.00;;;19.10;63.80;;;;;;5038445;28;20733;-53
2021/05/10 06:05:11;;;;;;;3.88;1.80;;;19.20;63.00;;;;;;5090028;28;20055;-54
2021/05/10 06:07:41;;;;;;;7.57;2.00;;;19.20;63.70;;;;;;5076261;28;20415;-56
2021/05/10 06:10:08;;;;;;;7.15;1.90;;;19.20;63.40;;;;;;5081202;28;20041;-54
2021/05/10 06:12:43;;;;;;;8.00;2.67;;;19.30;62.50;;;;;;5062770;28;20048;-56
2021/05/10 06:15:12;;;;;;;4.97;2.05;;;19.30;62.20;;;;;;5090021;28;20047;-53
2021/05/10 06:17:38;;;;;;;5.72;1.85;;;19.30;63.00;;;;;;5057860;28;20407;-55
2021/05/10 06:20:06;;;;;;;8.50;1.95;;;19.30;62.70;;;;;;5091163;28;20135;-55
2021/05/10 06:22:32;;;;;;;11.88;1.80;;;19.40;61.00;;;;;;5090731;28;20044;-55
2021/05/10 06:25:00;;;;;;;5.78;1.70;;;19.40;62.00;;;;;;5090766;28;20046;-54
2021/05/10 06:27:25;;;;;;;11.45;1.90;;;19.50;61.90;;;;;;5091362;28;20032;-54
2021/05/10 06:29:51;;;;;;;4.70;1.75;;;19.40;62.10;;;;;;5085645;28;20063;-55
2021/05/10 06:32:17;;;;;;;5.13;1.92;;;19.30;62.80;;;;;;5062986;28;20043;-53
2021/05/10 06:34:43;;;;;;;5.00;1.80;;;19.30;63.00;;;;;;5086724;28;20102;-49
2021/05/10 06:37:09;;;;;;;6.22;2.30;;;19.20;63.20;;;;;;5069061;28;20052;-50
2021/05/10 06:39:35;;;;;;;6.47;2.10;;;19.20;64.40;;;;;;5089542;28;20190;-53
2021/05/10 06:42:01;;;;;;;5.97;2.00;;;19.10;64.40;;;;;;5084033;28;20550;-54
2021/05/10 06:44:32;;;;;;;5.73;2.03;;;19.10;64.30;;;;;;5080108;28;20040;-53
2021/05/10 06:46:57;;;;;;;5.40;1.92;;;19.10;64.50;;;;;;5091219;28;20055;-51
2021/05/10 06:49:23;;;;;;;3.30;1.50;;;19.20;64.60;;;;;;5050942;28;20044;-50
2021/05/10 06:51:49;;;;;;;4.95;1.80;;;19.30;64.20;;;;;;5080211;28;20055;-53
2021/05/10 06:54:15;;;;;;;6.55;1.67;;;19.40;64.00;;;;;;5091007;28;20043;-53
2021/05/10 06:56:42;;;;;;;3.33;1.60;;;19.50;64.20;;;;;;5052428;28;20123;-53
2021/05/10 06:59:09;;;;;;;3.85;1.60;;;19.50;63.50;;;;;;5071487;28;20071;-51
2021/05/10 07:01:35;;;;;;;7.47;1.75;;;19.50;62.90;;;;;;5054487;28;20488;-55
2021/05/10 07:04:01;;;;;;;6.57;1.63;;;19.50;63.70;;;;;;5083452;28;20040;-55
2021/05/10 07:06:28;;;;;;;6.63;1.50;;;19.50;63.70;;;;;;5088381;28;20039;-55
2021/05/10 07:08:55;;;;;;;5.55;1.70;;;19.40;64.80;;;;;;5076652;28;20417;-56
2021/05/10 07:11:20;;;;;;;2.85;1.55;;;19.40;64.30;;;;;;5087120;28;20040;-54
2021/05/10 07:13:46;;;;;;;6.30;1.55;;;19.50;65.10;;;;;;5080473;28;20507;-55
2021/05/10 07:16:12;;;;;;;4.82;1.50;;;19.60;65.50;;;;;;5089470;28;20119;-53
2021/05/10 07:18:38;;;;;;;3.67;1.40;;;19.70;66.30;;;;;;5072238;28;20467;-54
2021/05/10 07:21:04;;;;;;;3.80;1.55;;;19.80;65.40;;;;;;5090741;28;20058;-54
2021/05/10 07:23:32;;;;;;;6.50;1.90;;;20.00;66.20;;;;;;5090241;28;20044;-54
2021/05/10 07:25:58;;;;;;;3.90;1.73;;;20.00;67.40;;;;;;5090386;28;20368;-55
2021/05/10 07:28:25;;;;;;;6.13;1.65;;;20.00;66.40;;;;;;5077264;28;20036;-55
2021/05/10 07:30:51;;;;;;;4.63;1.58;;;19.90;66.30;;;;;;5071869;28;20563;-55
2021/05/10 07:33:17;;;;;;;1.88;1.40;;;19.70;66.30;;;;;;5065631;28;20132;-54
2021/05/10 07:35:43;;;;;;;1.42;1.00;;;19.70;65.30;;;;;;5069896;28;20043;-55
2021/05/10 07:38:09;;;;;;;1.52;0.90;;;19.60;64.40;;;;;;5087562;28;20040;-55
2021/05/10 07:40:35;;;;;;;0.80;0.80;;;19.40;64.00;;;;;;5089917;28;20048;-56
2021/05/10 07:43:02;;;;;;;1.80;0.90;;;19.40;63.90;;;;;;5071058;28;20397;-54
2021/05/10 07:45:29;;;;;;;7.30;1.10;;;19.30;64.70;;;;;;5088783;28;20036;-55
2021/05/10 07:47:57;;;;;;;2.45;0.90;;;19.30;64.60;;;;;;5087630;28;20081;-55
2021/05/10 07:50:25;;;;;;;2.42;0.80;;;19.10;64.80;;;;;;5088912;28;20036;-55
2021/05/10 07:52:51;;;;;;;0.90;0.80;;;19.00;65.00;;;;;;5071644;28;20087;-55
2021/05/10 07:55:18;;;;;;;1.70;0.70;;;19.00;64.90;;;;;;5088435;28;20444;-54
2021/05/10 07:57:46;;;;;;;8.25;1.00;;;19.00;65.30;;;;;;5087028;28;20032;-50
2021/05/10 08:00:16;;;;;;;0.90;0.73;;;19.00;65.50;;;;;;5088826;28;20059;-53
2021/05/10 08:02:47;;;;;;;3.13;0.90;;;18.90;65.70;;;;;;5069014;28;20407;-53
2021/05/10 08:05:13;;;;;;;0.73;0.68;;;18.80;66.30;;;;;;5089922;28;20052;-54
2021/05/10 08:07:39;;;;;;;1.42;0.80;;;19.00;67.00;;;;;;5089674;28;20051;-52
2021/05/10 08:10:07;;;;;;;1.88;0.77;;;19.10;67.80;;;;;;5088561;28;20044;-52
2021/05/10 08:12:33;;;;;;;0.93;0.80;;;19.40;67.70;;;;;;5090209;28;20044;-51
2021/05/10 08:14:59;;;;;;;2.90;0.93;;;19.50;67.20;;;;;;5089363;28;20115;-55
2021/05/10 08:17:25;;;;;;;0.70;0.70;;;19.60;66.50;;;;;;5089263;28;20043;-52
2021/05/10 08:19:51;;;;;;;0.88;0.73;;;19.50;66.60;;;;;;5092825;28;20040;-53
2021/05/10 08:22:17;;;;;;;2.50;1.17;;;19.30;66.20;;;;;;5087507;28;20051;-53
2021/05/10 08:24:43;;;;;;;3.50;1.20;;;19.10;66.70;;;;;;5093511;28;20032;-53
2021/05/10 08:27:09;;;;;;;6.22;1.25;;;19.10;67.00;;;;;;5092014;28;20086;-53
2021/05/10 08:29:35;;;;;;;2.67;1.17;;;18.90;68.00;;;;;;5079155;28;20044;-53
2021/05/10 08:32:01;;;;;;;2.80;1.10;;;18.80;68.60;;;;;;5092045;28;20454;-55
2021/05/10 08:34:27;;;;;;;3.97;1.20;;;19.00;69.60;;;;;;5092511;28;20541;-54
2021/05/10 08:36:54;;;;;;;4.40;1.33;;;19.10;69.40;;;;;;5092739;28;20052;-53
2021/05/10 08:39:20;;;;;;;2.85;1.30;;;19.20;68.60;;;;;;5091111;28;20036;-53
2021/05/10 08:41:46;;;;;;;2.55;1.33;;;19.30;68.30;;;;;;5081365;28;20039;-51
2021/05/10 08:44:12;;;;;;;1.55;1.30;;;19.30;67.90;;;;;;5092237;28;20467;-53
2021/05/10 08:46:40;;;;;;;3.08;1.30;;;19.30;67.40;;;;;;5092289;28;20086;-50
2021/05/10 08:49:06;;;;;;;3.85;1.60;;;19.20;66.50;;;;;;5091973;28;20075;-54
2021/05/10 08:51:37;;;;;;;3.80;1.50;;;19.10;66.60;;;;;;5091748;28;20526;-53
2021/05/10 08:54:03;;;;;;;2.35;1.40;;;19.00;66.40;;;;;;5083698;28;20107;-52
2021/05/10 08:56:29;;;;;;;2.70;1.70;;;18.90;66.50;;;;;;5092469;28;20486;-51
2021/05/10 08:58:55;;;;;;;4.50;1.40;;;19.00;67.10;;;;;;5091803;28;20119;-54
2021/05/10 09:01:21;;;;;;;4.45;1.70;;;19.00;67.40;;;;;;5091484;28;20110;-52
2021/05/10 09:03:50;;;;;;;5.20;2.05;;;19.10;67.20;;;;;;5080526;28;20135;-52
2021/05/10 09:06:21;;;;;;;2.97;1.73;;;19.10;67.20;;;;;;5092620;28;20071;-53
2021/05/10 09:08:51;;;;;;;7.33;1.60;;;19.10;66.90;;;;;;5091364;28;20038;-52
2021/05/10 09:11:18;;;;;;;3.30;1.63;;;19.10;66.50;;;;;;5092862;28;20057;-53
2021/05/10 09:13:55;;;;;;;3.25;1.40;;;19.00;66.40;;;;;;5092148;28;20040;-55
2021/05/10 09:16:21;;;;;;;2.53;1.40;;;19.00;67.30;;;;;;5074453;28;20090;-54
2021/05/10 09:18:57;;;;;;;3.15;1.60;;;18.90;67.90;;;;;;5091298;28;20068;-52
2021/05/10 09:21:30;;;;;;;2.92;1.52;;;18.80;67.90;;;;;;5092417;28;20044;-53
2021/05/10 09:23:57;;;;;;;4.75;1.60;;;18.80;67.80;;;;;;5091699;28;20044;-54
2021/05/10 09:26:28;;;;;;;4.72;1.60;;;18.90;67.50;;;;;;5092370;28;20052;-53
2021/05/10 09:28:54;;;;;;;1.80;1.30;;;18.80;67.40;;;;;;5089876;28;20087;-56
2021/05/10 09:31:20;;;;;;;3.28;1.48;;;18.80;67.90;;;;;;5092142;28;20560;-53
2021/05/10 09:33:46;;;;;;;1.98;1.30;;;18.60;68.80;;;;;;5089559;28;20067;-53
2021/05/10 09:36:40;;;;;;;2.47;1.40;;;18.60;68.80;;;;;;5093071;28;20503;-53
2021/05/10 09:39:30;;;;;;;6.30;1.60;;;18.50;69.20;;;;;;5091309;28;20118;-54
2021/05/10 09:42:02;;;;;;;3.88;1.40;;;18.60;68.50;;;;;;5072030;28;20047;-54
2021/05/10 09:44:41;;;;;;;1.58;1.23;;;18.60;68.50;;;;;;5090898;28;20047;-53
2021/05/10 09:47:07;;;;;;;4.88;1.35;;;18.60;68.80;;;;;;5088529;28;20558;-53
2021/05/10 09:49:46;;;;;;;3.15;1.45;;;18.60;69.30;;;;;;5087515;28;20107;-54
2021/05/10 09:52:24;;;;;;;3.58;1.52;;;18.60;69.60;;;;;;5081744;28;20435;-56
2021/05/10 09:54:58;;;;;;;2.15;1.50;;;18.50;69.40;;;;;;5088517;28;20036;-52
2021/05/10 09:57:24;;;;;;;5.18;1.60;;;18.20;65.00;;;;;;5079759;28;20047;-51
2021/05/10 10:00:19;;;;;;;3.03;1.40;;;17.90;67.30;;;;;;5082642;28;20031;-54
2021/05/10 10:02:45;;;;;;;3.00;1.30;;;17.40;69.60;;;;;;5084989;28;20044;-52
2021/05/10 10:05:12;;;;;;;2.22;1.30;;;17.10;70.30;;;;;;5092224;28;20043;-51
2021/05/10 10:07:42;;;;;;;1.80;1.10;;;16.80;70.90;;;;;;5092103;28;20134;-50
2021/05/10 10:10:09;;;;;;;1.65;1.10;;;16.60;71.70;;;;;;5060109;28;20036;-51
2021/05/10 10:12:35;;;;;;;1.92;1.10;;;16.50;71.30;;;;;;5092023;28;20047;-56
2021/05/10 10:15:01;;;;;;;2.75;1.45;;;16.40;72.50;;;;;;5082141;28;20048;-56
2021/05/10 10:17:27;;;;;;;1.70;1.45;;;16.30;73.10;;;;;;5092905;28;20498;-54
2021/05/10 10:19:57;;;;;;;3.28;1.52;;;16.20;73.80;;;;;;5086309;28;20105;-55
2021/05/10 10:22:23;;;;;;;2.33;1.30;;;16.20;74.50;;;;;;5081025;28;20039;-52
2021/05/10 10:24:49;;;;;;;4.93;1.50;;;16.30;74.10;;;;;;5072951;28;20051;-53
2021/05/10 10:27:15;;;;;;;3.25;1.50;;;16.30;74.30;;;;;;5086276;28;20036;-56
2021/05/10 10:29:45;;;;;;;5.80;1.50;;;16.50;73.70;;;;;;5081786;28;20450;-54
2021/05/10 10:32:17;;;;;;;3.50;1.83;;;16.50;74.10;;;;;;5083891;28;20421;-52
2021/05/10 10:34:45;;;;;;;;;;;16.60;75.10;;;;;;5089429;28;20464;-52
2021/05/10 10:37:12;;;;;;;2.55;1.60;;;16.60;75.30;;;;;;5082009;28;20019;-53
2021/05/10 10:39:50;;;;;;;3.97;1.85;;;16.60;75.40;;;;;;5087749;28;20063;-50
2021/05/10 10:42:28;;;;;;;10.68;3.58;;;16.60;76.10;;;;;;5090623;28;20046;-53
2021/05/10 10:44:55;;;;;;;5.97;1.95;;;16.60;75.90;;;;;;5093522;22;20471;-56
2021/05/10 10:47:44;;;;;;;3.35;1.77;;;16.60;75.90;;;;;;5049210;28;20087;-56
2021/05/10 10:50:24;;;;;;;2.40;1.52;;;16.50;75.70;;;;;;5057006;28;20056;-51
2021/05/10 10:52:58;;;;;;;3.22;1.73;;;16.60;75.40;;;;;;5041027;28;20033;-53
2021/05/10 10:55:37;;;;;;;2.85;1.67;;;16.50;75.50;;;;;;5042659;28;20041;-55
2021/05/10 10:58:12;;;;;;;3.25;1.70;;;16.50;75.20;;;;;;5049537;28;20048;-53
2021/05/10 11:00:56;;;;;;;3.50;1.75;;;16.50;75.10;;;;;;5049546;28;20037;-53
2021/05/10 11:03:26;;;;;;;3.25;1.63;;;16.50;75.10;;;;;;5047437;28;20044;-50
2021/05/10 11:05:53;;;;;;;3.10;1.50;;;16.50;74.30;;;;;;5032404;28;20062;-52
2021/05/10 11:08:44;;;;;;;3.40;1.50;;;16.50;74.50;;;;;;5048684;28;20041;-52
2021/05/10 11:11:12;;;;;;;2.65;1.40;;;16.40;74.90;;;;;;5049967;28;20133;-52
2021/05/10 11:13:42;;;;;;;2.65;1.50;;;16.40;74.90;;;;;;5049409;28;20033;-49
2021/05/10 11:16:14;;;;;;;1.40;1.30;;;16.50;75.10;;;;;;5049827;28;20044;-53
2021/05/10 11:18:45;;;;;;;;;;;16.50;75.10;;;;;;5069784;28;20033;-52
2021/05/10 11:21:23;;;;;;;3.35;1.80;;;16.60;75.50;;;;;;5052582;28;19924;-53
2021/05/10 11:23:50;;;;;;;2.45;1.80;;;16.60;75.10;;;;;;5071236;28;20037;-53
2021/05/10 11:26:51;;;;;;;4.82;1.85;;;16.60;75.30;;;;;;5057815;28;20120;-52
2021/05/10 11:29:26;;;;;;;2.92;2.15;;;16.60;75.70;;;;;;5053048;28;20037;-52
2021/05/10 11:31:55;;;;;;;5.07;2.40;;;16.70;75.30;;;;;;5046907;28;20530;-52
2021/05/10 11:34:24;;;;;;;5.47;2.78;;;16.70;75.40;;;;;;5050615;28;20069;-55
2021/05/10 11:36:52;;;;;;;4.78;2.67;;;16.70;75.30;;;;;;5054621;28;20125;-53
2021/05/10 11:39:25;;;;;;;6.63;3.00;;;16.80;75.10;;;;;;5054162;28;20039;-53
2021/05/10 11:42:06;;;;;;;6.75;3.33;;;16.70;76.20;;;;;;5056265;28;20113;-53
2021/05/10 11:44:38;;;;;;;5.10;2.80;;;16.70;75.80;;;;;;5053451;28;20138;-50
2021/05/10 11:47:04;;;;;;;;;;;16.70;75.60;;;;;;5060456;28;20086;-50
2021/05/10 11:49:42;;;;;;;3.38;2.70;;;16.60;76.40;;;;;;5057359;28;19924;-51
2021/05/10 11:52:15;;;;;;;5.28;3.45;;;16.60;76.00;;;;;;5063528;28;20032;-50
2021/05/10 11:54:47;;;;;;;4.68;2.60;;;16.60;75.50;;;;;;5055751;28;20041;-52
2021/05/10 11:57:15;;;;;;;4.85;2.90;;;16.50;75.40;;;;;;5059523;28;20111;-51
2021/05/10 11:59:52;;;;;;;6.25;2.78;;;16.50;75.40;;;;;;5056838;28;20039;-51
2021/05/10 12:02:23;;;;;;;4.45;2.70;;;16.50;75.70;;;;;;5062160;28;20048;-50
2021/05/10 12:05:06;;;;;;;5.40;2.60;;;16.50;75.30;;;;;;5043184;28;20073;-53
2021/05/10 12:07:33;;;;;;;4.03;2.20;;;16.50;74.00;;;;;;5032430;28;20057;-50
2021/05/10 12:10:13;;;;;;;5.15;2.05;;;16.40;74.70;;;;;;5054112;28;20508;-52
2021/05/10 12:12:44;;;;;;;6.10;2.20;;;16.40;74.60;;;;;;5050966;28;20437;-53
2021/05/10 12:15:19;;;;;;;3.80;1.70;;;16.40;73.50;;;;;;5072322;28;20052;-53
2021/05/10 12:17:51;;;;;;;4.55;1.88;;;16.30;74.40;;;;;;5040358;28;20409;-51
2021/05/10 12:20:17;;;;;;;7.82;1.88;;;16.20;74.60;;;;;;5056142;28;20048;-53
2021/05/10 12:22:48;;;;;;;3.95;1.70;;;16.20;74.40;;;;;;5065512;28;20045;-50
2021/05/10 12:25:18;;;;;;;6.63;1.65;;;16.10;74.20;;;;;;5063350;28;20158;-52
2021/05/10 12:28:14;;;;;;;6.90;1.80;;;16.00;74.10;;;;;;5060238;28;20051;-51
2021/05/10 12:30:46;;;;;;;4.85;1.95;;;16.00;73.90;;;;;;5051863;28;20475;-50
2021/05/10 12:33:21;;;;;;;6.50;2.00;;;15.90;74.50;;;;;;5055991;28;20045;-50
2021/05/10 12:35:48;;;;;;;2.50;1.75;;;15.90;74.60;;;;;;5053418;28;20071;-50
2021/05/10 12:38:46;;;;;;;5.18;2.20;;;15.90;75.30;;;;;;5038076;28;20124;-53
2021/05/10 12:41:22;;;;;;;6.00;1.90;;;15.80;75.40;;;;;;5057177;28;20041;-50
2021/05/10 12:43:49;;;;;;;4.68;1.95;;;15.80;76.00;;;;;;5048679;28;20048;-50
2021/05/10 12:46:15;;;;;;;5.93;1.90;;;15.80;76.00;;;;;;5049793;28;20458;-50
2021/05/10 12:48:43;;;;;;;4.13;1.95;;;15.80;76.10;;;;;;5052360;28;20112;-51
2021/05/10 12:51:11;;;;;;;5.13;2.17;;;15.80;76.60;;;;;;5059075;28;20052;-52
2021/05/10 12:53:41;;;;;;;5.85;2.05;;;15.70;76.80;;;;;;5056905;28;20076;-53